Time;durP1;ratioP1;P1;durP2;ratioP2;P2;SDS_P1;SDS_P2;PMS_P1;PMS_P2;Temp;Humidity;BMP_temperature;BMP_pressure;BME280_temperature;BME280_humidity;BME280_pressure;Samples;Min_cycle;Max_cycle;Signal;HPM_P1;HPM_P2
2022/10/11 00:00:32;;;;;;;8.35;4.40;;;6.30;99.90;;;;;;5033248;28;20079;-49
2022/10/11 00:02:59;;;;;;;8.60;4.30;;;6.30;99.90;;;;;;5032615;28;20024;-51
2022/10/11 00:05:24;;;;;;;8.52;4.68;;;6.30;99.90;;;;;;5032965;28;20050;-49
2022/10/11 00:07:50;;;;;;;8.82;4.88;;;6.30;99.90;;;;;;5032574;28;20040;-57
2022/10/11 00:10:17;;;;;;;9.43;4.97;;;6.30;99.90;;;;;;5032784;28;20112;-51
2022/10/11 00:12:43;;;;;;;13.35;5.30;;;6.30;99.90;;;;;;5032790;28;20484;-48
2022/10/11 00:15:14;;;;;;;10.32;5.25;;;6.30;99.90;;;;;;5032788;28;20033;-47
2022/10/11 00:17:40;;;;;;;9.70;4.80;;;6.30;99.90;;;;;;5032756;28;20051;-49
2022/10/11 00:20:06;;;;;;;10.45;4.68;;;6.40;99.90;;;;;;5032659;28;20491;-52
2022/10/11 00:22:33;;;;;;;10.27;5.03;;;6.40;99.90;;;;;;5032621;28;20404;-49
2022/10/11 00:24:59;;;;;;;11.68;4.65;;;6.40;99.90;;;;;;5032597;28;20443;-52
2022/10/11 00:27:25;;;;;;;10.88;4.60;;;6.50;99.90;;;;;;5032417;28;20112;-49
2022/10/11 00:29:50;;;;;;;10.50;4.22;;;6.50;99.90;;;;;;5032504;28;20053;-52
2022/10/11 00:32:16;;;;;;;8.30;4.30;;;6.50;99.90;;;;;;5032583;28;20410;-47
2022/10/11 00:34:42;;;;;;;10.90;4.75;;;6.60;99.90;;;;;;5031637;28;20032;-51
2022/10/11 00:37:08;;;;;;;11.07;4.60;;;6.60;99.90;;;;;;5032004;28;20033;-47
2022/10/11 00:39:33;;;;;;;7.70;4.80;;;6.50;99.90;;;;;;5032765;28;20476;-49
2022/10/11 00:41:59;;;;;;;9.38;4.32;;;6.50;99.90;;;;;;5032618;28;20079;-52
2022/10/11 00:44:27;;;;;;;9.27;4.55;;;6.50;99.90;;;;;;5032384;28;20021;-49
2022/10/11 00:46:58;;;;;;;10.80;5.25;;;6.30;99.90;;;;;;5032467;28;20033;-52
2022/10/11 00:49:31;;;;;;;21.15;6.80;;;6.00;99.90;;;;;;5031892;28;20022;-46
2022/10/11 00:52:05;;;;;;;18.70;7.13;;;5.70;99.90;;;;;;5032014;28;20026;-46
2022/10/11 00:54:34;;;;;;;16.13;6.85;;;5.50;99.90;;;;;;5031922;28;20039;-47
2022/10/11 00:57:07;;;;;;;16.77;6.68;;;5.40;99.90;;;;;;5032055;28;20029;-52
2022/10/11 00:59:42;;;;;;;23.58;6.95;;;5.60;99.90;;;;;;5031875;28;20341;-48
2022/10/11 01:02:12;;;;;;;16.30;6.13;;;5.60;99.90;;;;;;5032001;28;20396;-51
2022/10/11 01:04:38;;;;;;;14.75;5.43;;;5.60;99.90;;;;;;5031898;28;20033;-49
2022/10/11 01:07:03;;;;;;;10.70;5.35;;;5.70;99.90;;;;;;5031945;28;20102;-48
2022/10/11 01:09:30;;;;;;;14.52;5.28;;;5.80;99.90;;;;;;5031836;28;20108;-50
2022/10/11 01:11:58;;;;;;;11.35;5.30;;;5.80;99.90;;;;;;5032049;28;20131;-51
2022/10/11 01:15:02;;;;;;;11.65;5.47;;;5.80;99.90;;;;;;5032121;28;20365;-48
2022/10/11 01:17:33;;;;;;;13.75;5.30;;;5.90;99.90;;;;;;5022432;28;20790;-47
2022/10/11 01:20:33;;;;;;;16.92;5.45;;;5.70;99.90;;;;;;5031605;28;20021;-50
2022/10/11 01:23:17;;;;;;;12.55;5.45;;;5.50;99.90;;;;;;5025700;28;20033;-46
2022/10/11 01:25:51;;;;;;;13.18;5.20;;;5.40;99.90;;;;;;5020281;28;20033;-50
2022/10/11 01:28:41;;;;;;;13.55;5.45;;;5.40;99.90;;;;;;5031621;28;20030;-48
2022/10/11 01:31:25;;;;;;;12.48;5.40;;;5.40;99.90;;;;;;5031387;28;20063;-57
2022/10/11 01:33:53;;;;;;;12.25;5.30;;;5.50;99.90;;;;;;5031499;28;20025;-54
2022/10/11 01:36:46;;;;;;;13.02;4.90;;;5.50;99.90;;;;;;5031329;28;20026;-54
2022/10/11 01:39:46;;;;;;;14.63;5.00;;;5.50;99.90;;;;;;5031246;28;20029;-53
2022/10/11 01:42:13;;;;;;;12.65;4.90;;;5.50;99.90;;;;;;5019362;28;20095;-48
2022/10/11 01:44:41;;;;;;;14.25;5.78;;;5.50;99.90;;;;;;5031379;28;20017;-48
2022/10/11 01:47:07;;;;;;;15.63;5.90;;;5.20;99.90;;;;;;5031001;28;20021;-48
2022/10/11 01:49:33;;;;;;;12.98;5.38;;;5.10;99.90;;;;;;5029692;28;20389;-46
2022/10/11 01:52:02;;;;;;;12.07;4.95;;;5.00;99.90;;;;;;5030819;28;20056;-48
2022/10/11 01:54:36;;;;;;;;;;;5.00;99.90;;;;;;5031625;28;20068;-50
2022/10/11 01:57:07;;;;;;;13.00;5.38;;;5.10;99.90;;;;;;5029941;28;20375;-47
2022/10/11 01:59:39;;;;;;;11.13;5.18;;;5.20;99.90;;;;;;5030911;28;20030;-46
2022/10/11 02:02:41;;;;;;;9.68;5.20;;;5.10;99.90;;;;;;5031063;28;20443;-50
2022/10/11 02:05:29;;;;;;;10.73;4.70;;;5.10;99.90;;;;;;5017879;28;20041;-51
2022/10/11 02:08:12;;;;;;;15.15;4.85;;;5.20;99.90;;;;;;5030431;28;20064;-49
2022/10/11 02:11:07;;;;;;;13.65;5.00;;;5.20;99.90;;;;;;5030276;28;20448;-46
2022/10/11 02:13:40;;;;;;;8.70;4.35;;;5.20;99.90;;;;;;5023210;28;20037;-48
2022/10/11 02:16:11;;;;;;;14.93;4.90;;;5.20;99.90;;;;;;5031524;28;20503;-46
2022/10/11 02:18:42;;;;;;;12.75;4.65;;;5.20;99.90;;;;;;5028752;28;20535;-48
2022/10/11 02:21:12;;;;;;;9.60;4.45;;;5.20;99.90;;;;;;5032922;28;20026;-48
2022/10/11 02:24:02;;;;;;;8.10;4.10;;;5.30;99.90;;;;;;5032191;28;20025;-49
2022/10/11 02:26:31;;;;;;;8.65;4.40;;;5.20;99.90;;;;;;5030513;28;20044;-52
2022/10/11 02:29:00;;;;;;;;;;;5.30;99.90;;;;;;5030541;28;20025;-48
2022/10/11 02:31:28;;;;;;;9.55;4.38;;;5.30;99.90;;;;;;5030453;28;19936;-52
2022/10/11 02:34:16;;;;;;;10.95;4.97;;;5.20;99.90;;;;;;5030400;28;20053;-58
2022/10/11 02:37:09;;;;;;;8.20;4.30;;;5.30;99.90;;;;;;5030127;28;20433;-47
2022/10/11 02:39:51;;;;;;;12.68;4.20;;;5.20;99.90;;;;;;5027653;28;20057;-52
2022/10/11 02:42:25;;;;;;;10.13;4.50;;;5.20;99.90;;;;;;5030117;28;20044;-52
2022/10/11 02:44:59;;;;;;;9.20;4.35;;;5.20;99.90;;;;;;5030683;28;20095;-50
2022/10/11 02:47:27;;;;;;;9.35;3.70;;;5.10;99.90;;;;;;5030592;28;20068;-53
2022/10/11 02:49:53;;;;;;;10.05;4.35;;;5.00;99.90;;;;;;5030661;28;20048;-51
2022/10/11 02:52:19;;;;;;;9.57;4.35;;;5.00;99.90;;;;;;5030012;28;20022;-50
2022/10/11 02:54:44;;;;;;;8.63;4.00;;;5.00;99.90;;;;;;5029925;28;20034;-49
2022/10/11 02:57:10;;;;;;;8.80;3.58;;;4.90;99.90;;;;;;5030356;28;20033;-47
2022/10/11 02:59:35;;;;;;;8.27;4.05;;;4.90;99.90;;;;;;5033098;28;20415;-48
2022/10/11 03:02:02;;;;;;;6.85;3.47;;;4.80;99.90;;;;;;5034454;28;20072;-51
2022/10/11 03:04:28;;;;;;;10.73;3.78;;;4.70;99.90;;;;;;5034209;28;20504;-47
2022/10/11 03:06:53;;;;;;;7.55;3.72;;;4.70;99.90;;;;;;5034048;28;20052;-47
2022/10/11 03:09:19;;;;;;;8.95;3.33;;;4.60;99.90;;;;;;5034167;28;20018;-51
2022/10/11 03:11:45;;;;;;;9.20;4.22;;;4.50;99.90;;;;;;5033985;28;20431;-49
2022/10/11 03:14:10;;;;;;;8.88;3.85;;;4.50;99.90;;;;;;5034238;28;20021;-48
2022/10/11 03:16:36;;;;;;;9.88;3.80;;;4.40;99.90;;;;;;5033556;28;20455;-49
2022/10/11 03:19:01;;;;;;;7.47;3.75;;;4.40;99.90;;;;;;5033683;28;20432;-51
2022/10/11 03:21:27;;;;;;;6.30;3.33;;;4.40;99.90;;;;;;5033433;28;20026;-50
2022/10/11 03:23:53;;;;;;;7.78;3.88;;;4.40;99.90;;;;;;5033430;28;20026;-48
2022/10/11 03:26:18;;;;;;;6.20;3.40;;;4.40;99.90;;;;;;5034089;28;20646;-46
2022/10/11 03:28:44;;;;;;;7.68;3.70;;;4.30;99.90;;;;;;5033761;28;20041;-48
2022/10/11 03:31:10;;;;;;;11.63;3.88;;;4.30;99.90;;;;;;5033617;28;20041;-46
2022/10/11 03:33:35;;;;;;;12.60;4.47;;;4.30;99.90;;;;;;5033598;28;20017;-52
2022/10/11 03:36:01;;;;;;;8.15;3.85;;;4.30;99.90;;;;;;5032174;28;20064;-47
2022/10/11 03:38:27;;;;;;;9.15;4.10;;;4.30;99.90;;;;;;5033228;28;20497;-47
2022/10/11 03:40:52;;;;;;;8.40;4.03;;;4.30;99.90;;;;;;5033506;28;20101;-46
2022/10/11 03:43:18;;;;;;;5.88;3.70;;;4.40;99.90;;;;;;5033455;28;20408;-53
2022/10/11 03:45:44;;;;;;;7.05;3.25;;;4.30;99.90;;;;;;5033487;28;20021;-49
2022/10/11 03:48:10;;;;;;;9.85;3.85;;;4.30;99.90;;;;;;5033291;28;20026;-49
2022/10/11 03:50:36;;;;;;;12.07;4.28;;;4.30;99.90;;;;;;5033164;28;20041;-48
2022/10/11 03:53:02;;;;;;;9.13;3.78;;;4.30;99.90;;;;;;5026795;28;20029;-47
2022/10/11 03:55:27;;;;;;;9.55;3.33;;;4.20;99.90;;;;;;5031845;28;20041;-47
2022/10/11 03:57:53;;;;;;;9.55;3.75;;;4.30;99.90;;;;;;5032318;28;20014;-50
2022/10/11 04:00:19;;;;;;;12.35;4.18;;;4.30;99.90;;;;;;5032909;28;20030;-51
2022/10/11 04:02:45;;;;;;;8.75;4.05;;;4.30;99.90;;;;;;5032417;28;20022;-51
2022/10/11 04:05:11;;;;;;;10.07;3.90;;;4.30;99.90;;;;;;5032966;28;20049;-48
2022/10/11 04:07:37;;;;;;;6.72;3.70;;;4.30;99.90;;;;;;5033048;28;20523;-50
2022/10/11 04:10:04;;;;;;;7.93;3.97;;;4.30;99.90;;;;;;5032554;28;20041;-49
2022/10/11 04:12:30;;;;;;;7.53;3.60;;;4.40;99.90;;;;;;5033058;28;20021;-51
2022/10/11 04:14:55;;;;;;;10.18;4.10;;;4.40;99.90;;;;;;5032788;28;20048;-52
2022/10/11 04:17:21;;;;;;;8.65;3.70;;;4.40;99.90;;;;;;5032878;28;20045;-50
2022/10/11 04:19:47;;;;;;;8.10;3.75;;;4.40;99.90;;;;;;5032907;28;20018;-50
2022/10/11 04:22:12;;;;;;;8.90;4.10;;;4.40;99.90;;;;;;5032708;28;20120;-52
2022/10/11 04:24:38;;;;;;;9.35;4.35;;;4.50;99.90;;;;;;5032979;28;20076;-46
2022/10/11 04:27:04;;;;;;;11.23;4.90;;;4.50;99.90;;;;;;5032680;28;20084;-49
2022/10/11 04:29:29;;;;;;;7.15;4.10;;;4.60;99.90;;;;;;5032523;28;20025;-51
2022/10/11 04:31:55;;;;;;;7.95;4.10;;;4.60;99.90;;;;;;5032127;28;20439;-45
2022/10/11 04:34:20;;;;;;;9.65;3.50;;;4.50;99.90;;;;;;5032356;28;20131;-48
2022/10/11 04:36:46;;;;;;;10.63;4.10;;;4.50;99.90;;;;;;5032440;28;20025;-49
2022/10/11 04:39:12;;;;;;;6.30;3.50;;;4.40;99.90;;;;;;5032426;28;20025;-50
2022/10/11 04:41:37;;;;;;;8.05;3.78;;;4.50;99.90;;;;;;5032686;28;20030;-51
2022/10/11 04:44:03;;;;;;;8.68;3.70;;;4.40;99.90;;;;;;5032120;28;20132;-47
2022/10/11 04:46:29;;;;;;;7.43;3.72;;;4.40;99.90;;;;;;5030954;28;20039;-46
2022/10/11 04:48:55;;;;;;;8.13;4.20;;;4.30;99.90;;;;;;5032341;28;20416;-48
2022/10/11 04:51:20;;;;;;;9.02;3.42;;;4.30;99.90;;;;;;5031663;28;20087;-47
2022/10/11 04:53:47;;;;;;;5.90;3.45;;;4.40;99.90;;;;;;5032222;28;20033;-47
2022/10/11 04:56:15;;;;;;;8.77;3.85;;;4.30;99.90;;;;;;5032142;28;20036;-52
2022/10/11 04:58:41;;;;;;;13.13;4.63;;;4.30;99.90;;;;;;5032148;28;20025;-48
2022/10/11 05:01:08;;;;;;;7.93;3.60;;;4.30;99.90;;;;;;5032285;28;20021;-51
2022/10/11 05:03:34;;;;;;;8.48;4.13;;;4.40;99.90;;;;;;5031906;28;20108;-47
2022/10/11 05:06:00;;;;;;;7.85;3.97;;;4.40;99.90;;;;;;5031630;28;20111;-47
2022/10/11 05:08:26;;;;;;;7.32;3.78;;;4.40;99.90;;;;;;5031421;28;20076;-49
2022/10/11 05:10:58;;;;;;;10.63;3.88;;;4.50;99.90;;;;;;5031421;28;20056;-47
2022/10/11 05:13:25;;;;;;;14.20;4.55;;;4.50;99.90;;;;;;5031422;28;20034;-47
2022/10/11 05:15:52;;;;;;;7.10;3.92;;;4.40;99.90;;;;;;5031878;28;20025;-48
2022/10/11 05:18:18;;;;;;;6.30;3.35;;;4.20;99.90;;;;;;5032019;28;20040;-49
2022/10/11 05:20:43;;;;;;;7.13;3.70;;;4.20;99.90;;;;;;5032198;28;20100;-48
2022/10/11 05:23:09;;;;;;;7.90;3.50;;;4.20;99.90;;;;;;5033250;28;20067;-46
2022/10/11 05:25:35;;;;;;;7.55;3.75;;;4.60;99.90;;;;;;5034821;28;20448;-46
2022/10/11 05:28:01;;;;;;;6.97;3.72;;;4.30;99.90;;;;;;5033995;28;20097;-48
2022/10/11 05:30:27;;;;;;;6.63;3.45;;;4.30;99.90;;;;;;5031394;28;20115;-54
2022/10/11 05:32:52;;;;;;;9.27;3.83;;;4.30;99.90;;;;;;5031556;28;20022;-48
2022/10/11 05:35:18;;;;;;;9.57;3.78;;;4.30;99.90;;;;;;5031432;28;20423;-47
2022/10/11 05:37:44;;;;;;;7.10;3.60;;;4.30;99.90;;;;;;5031333;28;20067;-49
2022/10/11 05:40:10;;;;;;;9.68;3.42;;;4.30;99.90;;;;;;5031339;28;20033;-52
2022/10/11 05:42:36;;;;;;;8.13;3.83;;;4.30;99.90;;;;;;5030739;28;20018;-49
2022/10/11 05:45:06;;;;;;;5.10;3.03;;;4.20;99.90;;;;;;5031454;28;20025;-54
2022/10/11 05:47:32;;;;;;;7.78;3.53;;;4.20;99.90;;;;;;5031336;28;20121;-48
2022/10/11 05:49:58;;;;;;;7.57;3.42;;;4.10;99.90;;;;;;5031126;28;20435;-49
2022/10/11 05:52:24;;;;;;;9.88;4.05;;;4.10;99.90;;;;;;5031386;28;20026;-49
2022/10/11 05:54:49;;;;;;;9.25;3.83;;;4.10;99.90;;;;;;5031184;28;20085;-48
2022/10/11 05:57:15;;;;;;;8.05;3.83;;;4.10;99.90;;;;;;5031182;28;20018;-48
2022/10/11 05:59:41;;;;;;;7.43;3.55;;;4.10;99.90;;;;;;5030991;28;20052;-51
2022/10/11 06:02:12;;;;;;;6.68;3.72;;;4.20;99.90;;;;;;5030996;28;20050;-46
2022/10/11 06:04:38;;;;;;;8.23;3.90;;;4.20;99.90;;;;;;5031137;28;20026;-48
2022/10/11 06:07:04;;;;;;;7.35;3.50;;;4.20;99.90;;;;;;5031027;28;20032;-53
2022/10/11 06:09:30;;;;;;;7.47;3.67;;;4.30;99.90;;;;;;5031103;28;20025;-53
2022/10/11 06:11:56;;;;;;;11.90;4.40;;;4.30;99.90;;;;;;5030505;28;20728;-53
2022/10/11 06:14:21;;;;;;;7.53;3.78;;;4.40;99.90;;;;;;5030563;28;20033;-52
2022/10/11 06:16:47;;;;;;;9.98;4.28;;;4.30;99.90;;;;;;5030379;28;20029;-51
2022/10/11 06:19:13;;;;;;;7.03;3.88;;;4.40;99.90;;;;;;5030612;28;20357;-50
2022/10/11 06:21:38;;;;;;;8.88;3.92;;;4.40;99.90;;;;;;5030866;28;20105;-46
2022/10/11 06:24:04;;;;;;;7.80;4.10;;;4.40;99.90;;;;;;5030762;28;20022;-51
2022/10/11 06:26:30;;;;;;;9.00;4.20;;;4.40;99.90;;;;;;5030895;28;20033;-49
2022/10/11 06:28:56;;;;;;;8.73;3.92;;;4.40;99.90;;;;;;5030592;28;20022;-47
2022/10/11 06:31:21;;;;;;;6.32;3.58;;;4.40;99.90;;;;;;5030719;28;20045;-51
2022/10/11 06:33:47;;;;;;;7.60;4.22;;;4.40;99.90;;;;;;5033946;28;20060;-54
2022/10/11 06:36:14;;;;;;;9.70;4.03;;;4.50;99.90;;;;;;5034771;28;20416;-49
2022/10/11 06:38:40;;;;;;;10.27;4.53;;;4.60;99.90;;;;;;5034705;28;20030;-51
2022/10/11 06:41:23;;;;;;;12.20;5.20;;;4.70;99.90;;;;;;5034461;28;20033;-50
2022/10/11 06:43:49;;;;;;;8.15;4.28;;;4.80;99.90;;;;;;5034162;28;20586;-52
2022/10/11 06:46:16;;;;;;;8.45;4.20;;;4.80;99.90;;;;;;5034349;28;20053;-48
2022/10/11 06:48:43;;;;;;;10.85;4.55;;;4.90;99.90;;;;;;5034700;28;20102;-48
2022/10/11 06:51:10;;;;;;;17.17;5.65;;;4.90;99.90;;;;;;5034439;28;20045;-52
2022/10/11 06:53:36;;;;;;;12.02;4.90;;;4.90;99.90;;;;;;5034445;28;20061;-49
2022/10/11 06:56:11;;;;;;;11.57;4.85;;;4.90;99.90;;;;;;5034467;28;20029;-51
2022/10/11 06:58:37;;;;;;;9.07;4.18;;;5.00;99.90;;;;;;5034205;28;20021;-51
2022/10/11 07:01:05;;;;;;;10.50;4.10;;;5.00;99.90;;;;;;5034393;28;20030;-51
2022/10/11 07:03:31;;;;;;;9.68;3.85;;;5.10;99.90;;;;;;5034318;28;20029;-58
2022/10/11 07:06:09;;;;;;;7.80;3.58;;;5.10;99.90;;;;;;5034045;28;20578;-53
2022/10/11 07:08:35;;;;;;;14.30;5.20;;;5.20;99.90;;;;;;5032631;28;20040;-53
2022/10/11 07:11:09;;;;;;;9.75;4.13;;;5.40;99.90;;;;;;5033628;28;20033;-49
2022/10/11 07:13:36;;;;;;;13.93;4.90;;;5.50;99.90;;;;;;5033934;28;20031;-51
2022/10/11 07:16:08;;;;;;;11.55;4.53;;;5.70;99.90;;;;;;5033989;28;20040;-52
2022/10/11 07:18:33;;;;;;;11.25;3.90;;;5.80;99.90;;;;;;5033856;28;20021;-53
2022/10/11 07:21:04;;;;;;;9.70;4.25;;;5.90;99.90;;;;;;5033693;28;20029;-51
2022/10/11 07:23:30;;;;;;;11.57;4.18;;;5.90;99.90;;;;;;5033244;28;20037;-50
2022/10/11 07:25:56;;;;;;;12.00;4.43;;;6.00;99.90;;;;;;5032982;28;20030;-50
2022/10/11 07:28:22;;;;;;;9.60;4.28;;;6.10;99.90;;;;;;5033376;28;20499;-52
2022/10/11 07:30:47;;;;;;;12.52;4.65;;;6.20;99.90;;;;;;5033617;28;20072;-55
2022/10/11 07:33:13;;;;;;;12.73;4.50;;;6.30;99.90;;;;;;5033782;28;20111;-49
2022/10/11 07:35:39;;;;;;;16.20;6.50;;;6.40;99.90;;;;;;5033508;28;20143;-50
2022/10/11 07:38:05;;;;;;;10.52;5.22;;;6.60;99.90;;;;;;5033591;28;20071;-50
2022/10/11 07:40:32;;;;;;;9.88;4.35;;;6.60;99.90;;;;;;5032600;28;20029;-48
2022/10/11 07:42:59;;;;;;;11.30;5.03;;;6.70;99.90;;;;;;5033607;28;20020;-52
2022/10/11 07:45:27;;;;;;;11.15;4.63;;;6.70;99.90;;;;;;5032822;28;20040;-51
2022/10/11 07:47:55;;;;;;;9.85;4.60;;;6.70;99.90;;;;;;5033375;28;20028;-48
2022/10/11 07:50:21;;;;;;;13.15;4.53;;;6.90;99.90;;;;;;5033338;28;20033;-52
2022/10/11 07:52:53;;;;;;;13.32;4.40;;;7.00;99.90;;;;;;5033440;28;20087;-49
2022/10/11 07:55:19;;;;;;;13.55;4.22;;;7.10;99.90;;;;;;5033291;28;20083;-46
2022/10/11 07:57:44;;;;;;;13.18;4.10;;;7.20;99.90;;;;;;5032874;28;20037;-47
2022/10/11 08:00:11;;;;;;;14.82;4.57;;;7.30;99.90;;;;;;5033139;28;20026;-48
2022/10/11 08:02:36;;;;;;;12.45;4.35;;;7.40;99.90;;;;;;5032975;28;20029;-51
2022/10/11 08:05:02;;;;;;;10.15;3.72;;;7.70;99.90;;;;;;5032816;28;20059;-46
2022/10/11 08:07:28;;;;;;;17.02;4.30;;;8.00;99.90;;;;;;5033221;28;20033;-46
2022/10/11 08:09:55;;;;;;;11.27;3.35;;;8.30;99.90;;;;;;5033023;28;20037;-46
2022/10/11 08:12:20;;;;;;;12.90;3.72;;;8.70;99.90;;;;;;5031846;28;20492;-49
2022/10/11 08:14:46;;;;;;;9.15;3.53;;;9.20;99.90;;;;;;5033097;28;20036;-45
2022/10/11 08:17:13;;;;;;;9.95;3.40;;;10.20;99.90;;;;;;5032950;28;20107;-47
2022/10/11 08:19:38;;;;;;;8.57;2.88;;;11.50;99.90;;;;;;5033151;28;20033;-49
2022/10/11 08:22:04;;;;;;;10.38;3.55;;;12.80;99.90;;;;;;5033840;28;20024;-52
2022/10/11 08:24:30;;;;;;;13.32;3.60;;;14.10;99.90;;;;;;5035401;28;20035;-48
2022/10/11 08:26:55;;;;;;;10.13;3.78;;;15.10;99.90;;;;;;5034031;28;20424;-50
2022/10/11 08:29:21;;;;;;;11.23;3.10;;;16.10;99.90;;;;;;5032882;28;20116;-51
2022/10/11 08:31:46;;;;;;;9.23;3.10;;;16.80;99.90;;;;;;5032666;28;20040;-49
2022/10/11 08:34:12;;;;;;;9.40;2.97;;;17.20;99.90;;;;;;5032305;28;20075;-53
2022/10/11 08:36:38;;;;;;;14.30;3.45;;;16.90;99.90;;;;;;5032762;28;20021;-52
2022/10/11 08:39:06;;;;;;;13.32;3.30;;;16.50;99.90;;;;;;5032588;28;20036;-53
2022/10/11 08:41:48;;;;;;;12.90;3.28;;;16.60;99.90;;;;;;5032794;28;20029;-49
2022/10/11 08:44:44;;;;;;;12.32;3.10;;;17.20;99.90;;;;;;5032303;28;20840;-48
2022/10/11 08:47:23;;;;;;;13.20;3.38;;;18.20;99.90;;;;;;5032270;28;20499;-52
2022/10/11 08:49:50;;;;;;;13.25;3.17;;;19.20;99.40;;;;;;5040207;28;20045;-53
2022/10/11 08:52:47;;;;;;;10.73;2.85;;;20.10;96.20;;;;;;5039553;28;20056;-48
2022/10/11 08:55:20;;;;;;;9.18;2.60;;;21.10;94.80;;;;;;5031078;28;20057;-52
2022/10/11 08:57:52;;;;;;;13.60;2.83;;;22.10;92.60;;;;;;5030826;28;20033;-49
2022/10/11 09:00:31;;;;;;;10.43;2.85;;;23.00;91.50;;;;;;5032195;28;20476;-52
2022/10/11 09:03:15;;;;;;;;;;;23.70;87.70;;;;;;5032442;28;20033;-52
2022/10/11 09:06:13;;;;;;;11.02;2.35;;;24.60;83.30;;;;;;5025755;28;19996;-50
2022/10/11 09:09:03;;;;;;;9.63;2.55;;;25.70;78.10;;;;;;5026977;28;20021;-55
2022/10/11 09:11:44;;;;;;;13.30;3.20;;;26.30;72.60;;;;;;5023800;28;20037;-55
2022/10/11 09:14:23;;;;;;;7.90;2.13;;;26.90;69.60;;;;;;5023030;28;20048;-54
2022/10/11 09:16:59;;;;;;;8.50;2.25;;;27.10;69.50;;;;;;5029369;28;20029;-53
2022/10/11 09:19:34;;;;;;;9.68;2.35;;;27.90;67.30;;;;;;5029330;28;20056;-51
2022/10/11 09:22:11;;;;;;;10.13;2.47;;;28.50;65.70;;;;;;5011979;28;20109;-53
2022/10/11 09:25:02;;;;;;;12.88;3.10;;;28.80;61.90;;;;;;5013057;28;20443;-53
2022/10/11 09:27:57;;;;;;;9.68;2.30;;;29.20;60.50;;;;;;5016268;28;20109;-53
2022/10/11 09:30:22;;;;;;;10.18;2.72;;;29.70;58.20;;;;;;5014486;28;20034;-53
2022/10/11 09:33:07;;;;;;;9.90;2.13;;;29.50;57.90;;;;;;5017418;28;20140;-52
2022/10/11 09:35:38;;;;;;;12.25;2.58;;;29.60;55.20;;;;;;5029743;28;20056;-52
2022/10/11 09:38:13;;;;;;;8.02;1.90;;;29.70;56.20;;;;;;5031076;28;20091;-54
2022/10/11 09:40:58;;;;;;;9.82;2.50;;;30.30;53.70;;;;;;5046941;28;20045;-54
2022/10/11 09:43:24;;;;;;;10.32;2.65;;;30.40;55.10;;;;;;5048970;28;20025;-59
2022/10/11 09:45:50;;;;;;;8.80;2.28;;;30.70;53.60;;;;;;5040215;28;20037;-55
2022/10/11 09:48:26;;;;;;;9.20;2.20;;;30.90;51.50;;;;;;5038031;28;20753;-52
2022/10/11 09:51:15;;;;;;;7.47;2.40;;;31.40;51.10;;;;;;5031151;28;20055;-51
2022/10/11 09:53:53;;;;;;;11.18;2.50;;;32.00;51.00;;;;;;5035746;28;20460;-52
2022/10/11 09:56:19;;;;;;;7.07;2.58;;;31.80;50.60;;;;;;5041153;28;20024;-52
2022/10/11 09:58:45;;;;;;;10.05;2.60;;;31.70;49.50;;;;;;5049547;28;20061;-53
2022/10/11 10:01:21;;;;;;;6.97;2.40;;;31.30;51.00;;;;;;5047327;28;20068;-55
2022/10/11 10:03:47;;;;;;;9.02;2.35;;;31.70;48.60;;;;;;5032579;28;20068;-52
2022/10/11 10:06:22;;;;;;;9.18;2.60;;;32.00;47.90;;;;;;5031054;28;20061;-53
2022/10/11 10:08:49;;;;;;;8.40;2.65;;;32.10;47.80;;;;;;5033510;28;20660;-55
2022/10/11 10:11:16;;;;;;;10.82;2.40;;;32.40;47.30;;;;;;5047586;28;20025;-53
2022/10/11 10:13:50;;;;;;;7.78;2.08;;;32.60;46.60;;;;;;5035587;28;20028;-54
2022/10/11 10:16:29;;;;;;;9.82;2.22;;;32.90;48.10;;;;;;5035134;28;20767;-53
2022/10/11 10:18:56;;;;;;;7.25;2.20;;;32.50;46.20;;;;;;5033354;28;20066;-53
2022/10/11 10:21:48;;;;;;;6.20;1.98;;;32.20;46.10;;;;;;5033191;28;20108;-52
2022/10/11 10:24:40;;;;;;;8.73;2.30;;;32.70;46.80;;;;;;5033127;28;20025;-53
2022/10/11 10:27:21;;;;;;;7.65;1.70;;;32.60;45.10;;;;;;5027788;28;20065;-52
2022/10/11 10:30:07;;;;;;;7.95;1.90;;;32.50;44.80;;;;;;5026625;28;20034;-52
2022/10/11 10:32:54;;;;;;;7.07;2.30;;;32.90;44.50;;;;;;5029362;28;20018;-52
2022/10/11 10:35:31;;;;;;;7.28;2.15;;;32.90;43.10;;;;;;5029276;28;20507;-55
2022/10/11 10:38:00;;;;;;;10.57;2.25;;;32.60;43.90;;;;;;5027225;28;20036;-52
2022/10/11 10:40:48;;;;;;;6.60;2.13;;;31.60;45.20;;;;;;5020196;28;20546;-52
2022/10/11 10:43:22;;;;;;;7.07;1.92;;;31.30;44.90;;;;;;5030008;28;20472;-49
2022/10/11 10:46:12;;;;;;;8.07;2.17;;;31.30;44.50;;;;;;5029155;28;20026;-50
2022/10/11 10:48:56;;;;;;;10.55;1.98;;;31.30;44.30;;;;;;5028720;28;20021;-51
2022/10/11 10:51:43;;;;;;;7.63;2.03;;;30.80;43.50;;;;;;5028232;28;20037;-50
2022/10/11 10:54:35;;;;;;;7.55;2.05;;;30.70;45.20;;;;;;5028835;28;20025;-50
2022/10/11 10:57:08;;;;;;;9.38;2.22;;;30.50;45.70;;;;;;5028343;28;20052;-51
2022/10/11 10:59:40;;;;;;;11.27;2.47;;;29.70;43.40;;;;;;5029775;28;20037;-49
2022/10/11 11:02:28;;;;;;;8.80;2.28;;;29.20;45.60;;;;;;5030410;28;20029;-52
2022/10/11 11:05:17;;;;;;;;;;;28.10;47.00;;;;;;5030896;28;20049;-49
2022/10/11 11:07:50;;;;;;;7.93;1.90;;;27.30;47.90;;;;;;5030337;28;19920;-50
2022/10/11 11:10:23;;;;;;;8.98;1.70;;;27.40;49.50;;;;;;5029195;28;20083;-55
2022/10/11 11:12:52;;;;;;;8.13;2.20;;;27.50;49.50;;;;;;5029521;28;20038;-52
2022/10/11 11:15:31;;;;;;;7.63;1.98;;;27.80;50.70;;;;;;5029929;28;20018;-50
2022/10/11 11:18:17;;;;;;;9.57;2.10;;;28.10;49.90;;;;;;5029758;28;20052;-49
2022/10/11 11:20:51;;;;;;;9.27;2.30;;;27.70;51.50;;;;;;5032569;28;20042;-49
2022/10/11 11:23:31;;;;;;;8.05;2.15;;;27.40;51.70;;;;;;5033510;28;20039;-51
2022/10/11 11:26:10;;;;;;;6.82;1.52;;;26.60;50.80;;;;;;5030968;28;20092;-51
2022/10/11 11:28:44;;;;;;;7.18;1.98;;;26.20;53.00;;;;;;5033675;28;20029;-50
2022/10/11 11:31:48;;;;;;;9.00;1.80;;;25.70;48.90;;;;;;5033633;28;20029;-54
2022/10/11 11:34:19;;;;;;;8.48;2.10;;;25.30;52.80;;;;;;5021964;28;20041;-53
2022/10/11 11:37:00;;;;;;;10.82;1.95;;;25.00;51.20;;;;;;5033344;28;20036;-57
2022/10/11 11:39:38;;;;;;;5.70;1.52;;;24.10;51.10;;;;;;5033331;28;20061;-49
2022/10/11 11:42:27;;;;;;;6.38;1.85;;;24.00;51.80;;;;;;5027002;28;20029;-52
2022/10/11 11:44:53;;;;;;;8.18;1.70;;;23.50;53.70;;;;;;5029342;28;20179;-49
2022/10/11 11:47:38;;;;;;;7.40;1.80;;;23.20;56.00;;;;;;5031318;28;20679;-52
2022/10/11 11:50:22;;;;;;;7.68;1.95;;;23.70;55.50;;;;;;5031507;28;20025;-51
2022/10/11 11:53:03;;;;;;;8.02;2.17;;;24.40;54.30;;;;;;5031346;28;20017;-52
2022/10/11 11:55:51;;;;;;;5.07;1.60;;;25.20;52.40;;;;;;5031260;28;20021;-53
2022/10/11 11:58:36;;;;;;;9.18;2.25;;;25.60;50.60;;;;;;5031360;28;20017;-53
2022/10/11 12:01:10;;;;;;;8.35;1.90;;;25.30;50.00;;;;;;5031833;28;20042;-53
2022/10/11 12:03:40;;;;;;;11.02;2.05;;;25.80;52.00;;;;;;5031398;28;20025;-51
2022/10/11 12:06:22;;;;;;;7.10;2.00;;;26.70;52.20;;;;;;5031399;28;20479;-52
2022/10/11 12:09:02;;;;;;;9.00;1.80;;;27.00;48.80;;;;;;5030777;28;20029;-49
2022/10/11 12:11:41;;;;;;;6.35;1.80;;;27.60;45.00;;;;;;5030626;28;20026;-49
2022/10/11 12:14:28;;;;;;;6.35;1.67;;;28.10;47.60;;;;;;5029926;28;20029;-49
2022/10/11 12:17:15;;;;;;;7.20;1.80;;;28.40;45.50;;;;;;5032758;28;20033;-56
2022/10/11 12:20:07;;;;;;;6.90;1.85;;;27.90;46.40;;;;;;5030589;28;20034;-56
2022/10/11 12:22:32;;;;;;;6.63;1.90;;;27.50;49.10;;;;;;5032099;28;20026;-51
2022/10/11 12:25:21;;;;;;;8.02;1.77;;;27.00;47.30;;;;;;5032069;28;20083;-54
2022/10/11 12:27:49;;;;;;;6.93;1.58;;;26.20;48.90;;;;;;5031536;28;20105;-53
2022/10/11 12:30:41;;;;;;;6.32;1.88;;;25.30;49.10;;;;;;5032156;28;20033;-54
2022/10/11 12:33:12;;;;;;;6.68;1.52;;;24.60;49.00;;;;;;5031205;28;20090;-49
2022/10/11 12:35:46;;;;;;;8.75;2.20;;;24.00;49.40;;;;;;5033232;28;20087;-52
2022/10/11 12:38:20;;;;;;;8.15;1.83;;;23.50;50.90;;;;;;5033671;28;20109;-49
2022/10/11 12:40:49;;;;;;;7.40;1.80;;;22.80;53.40;;;;;;5043227;28;20481;-51
2022/10/11 12:43:14;;;;;;;9.20;1.63;;;22.30;58.70;;;;;;5030045;28;20022;-49
2022/10/11 12:45:46;;;;;;;9.55;1.73;;;22.00;56.80;;;;;;5014236;28;20110;-50
2022/10/11 12:48:37;;;;;;;8.52;2.22;;;21.70;58.00;;;;;;5028180;28;20033;-49
2022/10/11 12:51:29;;;;;;;5.95;1.85;;;21.60;57.20;;;;;;5031310;28;20033;-55
2022/10/11 12:54:15;;;;;;;6.95;1.50;;;21.50;59.50;;;;;;5030722;28;20026;-51
2022/10/11 12:56:53;;;;;;;8.77;1.73;;;21.60;59.80;;;;;;5021156;28;20202;-53
2022/10/11 12:59:22;;;;;;;5.55;1.50;;;21.70;56.60;;;;;;5023377;28;20449;-50
2022/10/11 13:01:56;;;;;;;8.65;1.75;;;21.20;54.20;;;;;;5028823;28;20036;-53
2022/10/11 13:04:31;;;;;;;9.45;1.70;;;20.60;56.60;;;;;;5027833;28;20061;-51
2022/10/11 13:07:04;;;;;;;5.90;1.55;;;20.20;55.70;;;;;;5030484;28;20068;-51
2022/10/11 13:09:31;;;;;;;6.88;1.80;;;19.90;56.30;;;;;;5030840;28;20026;-56
2022/10/11 13:12:01;;;;;;;8.73;1.77;;;19.80;58.30;;;;;;5030298;28;20037;-52
2022/10/11 13:14:29;;;;;;;5.85;1.92;;;19.60;61.80;;;;;;5016029;28;20034;-53